CCGS Sir Wilfrid Laurier — CGJK — position and weather

sailwx.info

Track history (hours):
 
Tides and Currents Weather Stations Pressure Air Temp Water Temp Dewpoint Dewpoint Depression Visibility Wind Speed Wind Dir Waves Ship Positions

Oceanographic research ship CCGS Sir Wilfrid Laurier (Canada)

Detailed information on ship capabilities available from ARCUS's ALIAS (Arctic Logistics Information and Support) project.

Last reported at 2016-Jul-28 18:00 UTC. Time now 2016-Jul-28 20:21 UTC.
Position N 69°36' W 138°54'.

Length 83 m; beam 16.2 m; draft 6 m.

Type: SAR. MMSI: 316052000.

Wind from 070 at 4 knots

Barometer 1003.1 mb
Air temperature 11.7 ° C
Dewpoint 9.5 ° C

Date/timePositionNaut miles runAvg speedWind from/ knotsBaromVisibWave heightAir tempDewpointWater temp
2016-Jul-28 18:00N 69°36' W 138°54'0 0.0 070 / 41003.1 11.7 9.5
2016-Jul-28 17:00N 69°36' W 138°54'0 0.0 100 / 31003.9 11.5 9.3
2016-Jul-28 16:00N 69°36' W 138°54'0 0.0 140 / 21004.5 13.110.4
2016-Jul-28 15:00N 69°36' W 138°54'0 0.0 240 / 11004.7 13.410.0
2016-Jul-28 14:00N 69°36' W 138°54'0 0.0 280 / 71005.1 12.7 9.5
2016-Jul-28 13:00N 69°36' W 138°54'0 0.0 320 / 81005.1 11.8 9.4
2016-Jul-28 12:00N 69°36' W 138°54'0 0.0 300 / 171005.0 12.3 9.2
2016-Jul-28 11:00N 69°36' W 138°54'0 0.0 300 / 281003.4 11.7 8.8
2016-Jul-28 08:00N 69°36' W 138°54'0 0.0 200 / 31002.2 14.910.0
2016-Jul-28 05:00N 69°36' W 138°54'0 0.0 170 / 181002.6 18.610.4
2016-Jul-27 23:00N 69°36' W 138°54'0 0.0 080 / 71005.0 19.7 5.1
2016-Jul-27 19:00N 69°36' W 138°54'0 0.0 180 / 81005.6 18.5 8.6
2016-Jul-27 18:00N 69°36' W 138°54'0 0.0 190 / 91006.1 19.4 8.2
2016-Jul-27 15:00N 69°36' W 138°54'0 0.0 220 / 11006.9 13.8 6.4
2016-Jul-27 12:00N 69°36' W 138°54'0 0.0 230 / 11007.3 11.1 8.6
2016-Jul-27 11:00N 69°36' W 138°54'0 0.0 180 / 11007.4 12.3 9.5
2016-Jul-27 10:00N 69°36' W 138°54'0 0.0 140 / 21007.6 11.2 9.5
2016-Jul-27 09:00N 69°36' W 138°54'0 0.0 140 / 11007.7 11.4 8.9
2016-Jul-27 04:00N 69°36' W 138°54'0 0.0 110 / 11008.6 13.7 8.0
2016-Jul-27 03:00N 69°36' W 138°54'0 0.0 110 / 41008.8 13.3 8.8
2016-Jul-27 02:00N 69°36' W 138°54'0 0.0 100 / 91008.6 12.6 8.3
2016-Jul-27 01:00N 69°36' W 138°54'0 0.0 090 / 91008.6 12.5 8.1
2016-Jul-27 00:00N 69°36' W 138°54'0 0.0 090 / 51008.9 12.5 8.1
2016-Jul-26 22:00N 69°36' W 138°54'0 0.0 120 / 91008.9 10.2 8.3
2016-Jul-26 20:00N 69°36' W 138°54'0 0.0 110 / 41009.1 9.6 8.0
2016-Jul-26 19:00N 69°36' W 138°54'0 0.0 120 / 71009.2 9.6 8.0
2016-Jul-26 18:00N 69°36' W 138°54'0 0.0 110 / 121009.3 9.1 7.8
2016-Jul-26 17:00N 69°36' W 138°54'0 0.0 120 / 131009.8 9.2 7.4 8.7
2016-Jul-26 15:00N 69°36' W 138°54'10 5.2 120 / 211010.6 8.2 6.7 8.6
2016-Jul-26 13:00N 69°30' W 138°30'7 7.3 140 / 251011.7 8.3 7.0 8.2
2016-Jul-26 12:00N 69°36' W 138°42'7 7.3 150 / 201012.2 8.3 7.2 8.1
2016-Jul-26 11:00N 69°42' W 138°54'9 8.6 130 / 231012.3 7.8 6.7 7.3
2016-Jul-26 10:00N 69°48' W 139°12'1010.2 120 / 251012.7 6.8 5.4 7.4
2016-Jul-26 09:00N 69°54' W 139°36'12 6.0 120 / 261012.9 6.7 4.9 6.3
2016-Jul-26 07:00N 70°00' W 140°06'9 8.6 120 / 261013.9 5.8 4.7 3.4
2016-Jul-26 06:00N 70°06' W 140°24'1010.1 110 / 181014.3 5.0 4.8 3.7
2016-Jul-26 05:00N 70°12' W 140°48'7 7.2 120 / 191014.9 2.6 2.4 3.9
2016-Jul-26 04:00N 70°18' W 141°00'6 6.1 110 / 191015.2 1.5 1.4 3.5
2016-Jul-26 03:00N 70°18' W 141°18'9 8.5 120 / 171015.5 1.3 1.2 4.0
2016-Jul-26 02:00N 70°24' W 141°36'6 6.0 120 / 171015.7 0.5 0.4 3.5
2016-Jul-26 01:00N 70°24' W 141°54'1010.0 110 / 151016.2 0.6 0.4 4.0
2016-Jul-26 00:00N 70°30' W 142°18'8 8.0 110 / 131016.2 0.5 0.4 3.9
2016-Jul-25 23:00N 70°30' W 142°42'13 6.7 100 / 151016.2 -0.1-0.2 3.5
2016-Jul-25 21:00N 70°36' W 143°18'8 8.5 090 / 111016.6 0.1-0.1 3.4
2016-Jul-25 20:00N 70°42' W 143°36'19 9.4 080 / 111016.6 -0.0-0.2 2.7
2016-Jul-25 18:00N 70°48' W 144°30'10 9.9 090 / 141016.4 2.5 0.9 3.3
2016-Jul-25 17:00N 70°54' W 144°54'10 9.8 090 / 111016.3 2.6 1.6 2.2
2016-Jul-25 16:00N 70°54' W 145°24'10 9.8 060 / 71016.5 2.1 1.4 1.7
2016-Jul-25 15:00N 70°54' W 145°54'1413.7 090 / 121015.9 2.0 1.4 1.6
2016-Jul-25 14:00N 70°54' W 146°36'8 4.2 080 / 141015.8 2.2 1.4 1.3
2016-Jul-25 12:00N 70°48' W 146°54'0 0.0 070 / 71016.1 1.3 1.1 0.9
2016-Jul-25 11:00N 70°48' W 146°54'0 0.0 070 / 71016.0 1.2 1.0 0.9
2016-Jul-25 10:00N 70°48' W 146°54'0 0.0 070 / 81015.9 1.2 1.0 1.0
2016-Jul-25 09:00N 70°48' W 146°54'2 2.0 070 / 61015.9 1.3 1.1 1.1
2016-Jul-25 08:00N 70°48' W 146°48'8 2.1 070 / 91015.8 1.3 1.1 1.2
2016-Jul-25 04:00N 70°54' W 147°06'4 3.9 090 / 191015.4 2.6 1.3 1.5
2016-Jul-25 03:00N 70°54' W 147°18'6 5.9 090 / 201015.2 2.4 1.0 1.0
2016-Jul-25 02:00N 70°54' W 147°36'4 3.9 090 / 211015.1 2.3 1.0 1.5
2016-Jul-25 01:00N 70°54' W 147°48'17 5.6 090 / 211015.2 2.4 1.0 1.8
2016-Jul-24 22:00N 71°06' W 148°24'1111.4 090 / 191015.5 2.8 1.5 2.5
2016-Jul-24 21:00N 71°12' W 148°54'35 7.0 090 / 191015.4 3.1 1.7 2.5
2016-Jul-24 16:00N 71°24' W 150°36'10 9.6 090 / 181014.9 3.1 2.2 2.6
2016-Jul-24 15:00N 71°24' W 151°06'16 8.2 080 / 171014.9 2.8 2.3 2.5
2016-Jul-24 13:00N 71°30' W 151°54'0 0.0 050 / 51015.7 1.7 1.5 1.2
2016-Jul-24 11:00N 71°30' W 151°54'0 0.0 050 / 81015.9 1.3 1.2 1.4
2016-Jul-24 10:00N 71°30' W 151°54'0 0.0 040 / 61016.0 1.5 1.3 1.4
2016-Jul-24 09:00N 71°30' W 151°54'0 0.0 040 / 51015.9 1.6 1.4 1.4
2016-Jul-24 06:00N 71°30' W 151°54'2 1.9 050 / 71015.9 2.1 1.9 2.2
2016-Jul-24 05:00N 71°30' W 152°00'7 7.1 030 / 111016.1 1.4 1.3 2.9
2016-Jul-24 04:00N 71°36' W 152°12'7 7.1 050 / 141016.3 1.0 0.8 3.4
2016-Jul-24 03:00N 71°42' W 152°24'4 3.8 050 / 131016.4 0.3 0.1 2.7
2016-Jul-24 02:00N 71°42' W 152°36'8 8.2 070 / 151016.3 -0.1-0.2 2.5
2016-Jul-24 01:00N 71°48' W 152°54'15 5.0 090 / 151016.4 0.4 0.3 1.6
2016-Jul-23 22:00N 71°48' W 153°42'7 7.1 090 / 131016.7 1.4 1.3 2.5
2016-Jul-23 21:00N 71°54' W 153°54'1313.0 090 / 161015.8 1.5 1.3 2.8
2016-Jul-23 20:00N 71°54' W 154°36'21 6.9 080 / 191015.6 1.5 1.4 2.8
2016-Jul-23 17:00N 71°42' W 155°30'13 6.4 080 / 141015.8 -0.5-0.7 2.7
2016-Jul-23 15:00N 71°36' W 156°06'6 5.7 070 / 131015.2 0.5-0.0 1.8
2016-Jul-23 14:00N 71°36' W 156°24'8 8.3 080 / 141015.1 0.1-0.4 3.6
2016-Jul-23 13:00N 71°30' W 156°42'0 0.0 040 / 41014.9 -0.3-0.5 3.2
2016-Jul-23 09:00N 71°30' W 156°42'0 0.0 080 / 71014.1 -0.1-0.3 3.6
2016-Jul-23 08:00N 71°30' W 156°42'0 0.0 030 / 41013.7 -0.3-0.5 2.8
2016-Jul-23 07:00N 71°30' W 156°42'0 0.0 050 / 71013.6 -0.1-0.3 3.3
2016-Jul-23 06:00N 71°30' W 156°42'2 1.9 030 / 61013.5 -0.0-0.2 2.5
2016-Jul-23 05:00N 71°30' W 156°48'6 6.0 020 / 41013.2 -0.2-0.4 2.7
2016-Jul-23 04:00N 71°24' W 156°48'0 0.0 030 / 81013.0 -0.4-0.5 2.1
2016-Jul-23 03:00N 71°24' W 156°48'0 0.0 040 / 81012.9 -0.6-0.7 2.2
2016-Jul-23 02:00N 71°24' W 156°48'0 0.0 360 / 51012.7 -0.9-1.0 2.2
2016-Jul-23 01:00N 71°24' W 156°48'2 1.9 360 / 61012.6 -1.0-1.2 2.0
2016-Jul-23 00:00N 71°24' W 156°54'0 0.0 350 / 41012.6 -1.1-1.2 2.0
2016-Jul-22 23:00N 71°24' W 156°54'0 0.0 350 / 31012.8 -1.0-1.1 1.9
2016-Jul-22 22:00N 71°24' W 156°54'0 0.0 010 / 71012.8 -1.3-1.5 1.7
2016-Jul-22 21:00N 71°24' W 156°54'2 1.9 030 / 101012.8 -0.7-0.8 5.1
2016-Jul-22 20:00N 71°24' W 156°48'0 0.0 360 / 41012.7 -0.5-0.7 5.2
2016-Jul-22 19:00N 71°24' W 156°48'2 1.9 360 / 51012.4 1.1 0.9 5.2
2016-Jul-22 18:00N 71°24' W 156°54'6 3.0 020 / 61012.2 2.2 2.0 5.3
2016-Jul-22 16:00N 71°18' W 156°54'0 0.0 010 / 61012.4 3.3 2.4 5.1
2016-Jul-22 14:00N 71°18' W 156°54'6 6.0 030 / 51012.4 3.4 2.7 4.4
2016-Jul-22 13:00N 71°24' W 156°54'0 0.0 030 / 61012.7 1.8 1.5 2.5
2016-Jul-22 12:00N 71°24' W 156°54'0 0.0 050 / 61012.9 1.6 1.2 2.5
2016-Jul-22 10:00N 71°24' W 156°54'2 1.9 070 / 71013.2 1.8 1.2 1.6
2016-Jul-22 09:00N 71°24' W 157°00'0 0.0 070 / 81013.3 2.1 1.5 1.7
2016-Jul-22 08:00N 71°24' W 157°00'2 1.9 070 / 81013.4 2.4 1.6 1.7
2016-Jul-22 07:00N 71°24' W 157°06'0 0.0 080 / 81013.4 2.8 2.0 1.8
2016-Jul-22 06:00N 71°24' W 157°06'0 0.0 060 / 91013.7 2.5 1.7 1.9
2016-Jul-22 05:00N 71°24' W 157°06'2 0.6 060 / 91014.0 2.5 1.7 2.4
2016-Jul-22 02:00N 71°24' W 157°12'6 6.3 070 / 101014.6 2.9 1.9 2.7
2016-Jul-22 01:00N 71°18' W 157°06'4 3.8 070 / 111014.8 6.1 3.9 5.3
2016-Jul-22 00:00N 71°18' W 156°54'0 0.0 070 / 101015.3 5.3 2.9
2016-Jul-21 21:00N 71°18' W 156°54'0 0.0 070 / 91015.9 4.9 3.2 4.4
2016-Jul-21 20:00N 71°18' W 156°54'0 0.0 070 / 91016.1 5.2 3.6 4.3
2016-Jul-21 19:00N 71°18' W 156°54'0 0.0 070 / 111016.1 5.7 3.6 4.2
2016-Jul-21 18:00N 71°18' W 156°54'0 0.0 080 / 111016.2 4.3 3.3 3.2
2016-Jul-21 17:00N 71°18' W 156°54'2 1.9 080 / 111016.4 4.8 3.8 3.2
2016-Jul-21 16:00N 71°18' W 157°00'2 1.9 080 / 101016.4 4.0 3.5 4.0
2016-Jul-21 15:00N 71°18' W 157°06'8 8.3 080 / 101016.5 3.7 3.4 4.1
2016-Jul-21 14:00N 71°12' W 157°24'4 3.9 080 / 121016.6 2.7 2.6 5.4
2016-Jul-21 13:00N 71°12' W 157°36'0 0.0 060 / 71017.1 1.7 1.6 4.3
2016-Jul-21 12:00N 71°12' W 157°36'0 0.0 050 / 31017.4 1.3 1.1 4.7
2016-Jul-21 11:00N 71°12' W 157°36'6 3.2 060 / 101017.8 1.5 1.4 4.3
2016-Jul-21 09:00N 71°06' W 157°30'0 0.0 060 / 91018.3 0.4 0.2 4.3
2016-Jul-21 08:00N 71°06' W 157°30'0 0.0 050 / 91018.4 0.1-0.1 4.2
2016-Jul-21 07:00N 71°06' W 157°30'6 1.6 040 / 81018.5 2.0 1.8 4.3
2016-Jul-21 03:00N 71°12' W 157°24'0 0.0 040 / 91019.8 2.5 2.2 4.5
2016-Jul-21 02:00N 71°12' W 157°24'0 0.0 020 / 91020.0 2.2 2.0 4.7
2016-Jul-21 01:00N 71°12' W 157°24'0 0.0 030 / 91020.1 2.1 1.9 4.4
2016-Jul-20 23:00N 71°12' W 157°24'0 0.0 010 / 61020.5 1.6 1.5 4.0
2016-Jul-20 22:00N 71°12' W 157°24'0 0.0 010 / 51020.4 1.1 0.9 3.9
2016-Jul-20 21:00N 71°12' W 157°24'6 6.3 030 / 61020.3 1.0 0.8 3.3
2016-Jul-20 20:00N 71°06' W 157°30'4 3.9 020 / 71020.2 0.3 0.1 3.4
2016-Jul-20 19:00N 71°06' W 157°42'10 4.9 060 / 31020.3 0.2-0.0 3.0
2016-Jul-20 17:00N 71°06' W 158°12'6 5.8 080 / 51020.1 0.8 0.5 5.9
2016-Jul-20 16:00N 71°06' W 158°30'1716.8 080 / 91019.5 1.5 1.2 7.2
2016-Jul-20 15:00N 70°54' W 159°06'4410.9 070 / 111019.3 2.0 1.8 7.6
2016-Jul-20 11:00N 70°48' W 161°18'18 8.9 070 / 101019.3 1.6 1.4 7.3
2016-Jul-20 09:00N 70°48' W 162°12'19 9.4 060 / 71019.3 2.3 2.0 7.5
2016-Jul-20 07:00N 70°54' W 163°06'20 9.9 050 / 71018.9 1.5 1.3 4.8
2016-Jul-20 05:00N 71°06' W 163°54'1312.6 020 / 41019.1 0.1-0.1 3.0
2016-Jul-20 04:00N 71°18' W 164°06'19 9.4 350 / 51019.1 -0.7-0.8 1.1
2016-Jul-20 02:00N 71°36' W 163°48'0 0.0 310 / 21019.1 -0.9-1.0 1.0
2016-Jul-20 00:00N 71°36' W 163°48'25 8.2 330 / 71018.9 -1.3-1.4 1.0
2016-Jul-19 21:00N 71°12' W 163°30'6 5.8 340 / 81018.4 -1.1-1.3 0.4
2016-Jul-19 20:00N 71°12' W 163°12'6 5.8 320 / 61018.1 -0.8-0.9 0.7
2016-Jul-19 19:00N 71°12' W 162°54'6 6.3 310 / 51018.1 -0.8-0.9 0.5
2016-Jul-19 18:00N 71°18' W 162°48'7 3.6 290 / 71018.0 -0.9-1.1 0.4
2016-Jul-19 16:00N 71°12' W 162°36'0 0.0 290 / 61017.9 -1.3-1.4 0.4
2016-Jul-19 15:00N 71°12' W 162°36'0 0.0 310 / 71017.9 -1.3-1.4 0.4
2016-Jul-19 14:00N 71°12' W 162°36'2 0.6 290 / 71017.8 -1.7-1.8 0.4
2016-Jul-19 11:00N 71°12' W 162°42'0 0.0 310 / 111017.8 -0.5-0.6 0.3
2016-Jul-19 09:00N 71°12' W 162°42'0 0.0 290 / 81017.7 0.8 0.7 0.5
2016-Jul-19 08:00N 71°12' W 162°42'0 0.0 290 / 81017.6 0.9 0.7 0.6
2016-Jul-19 07:00N 71°12' W 162°42'2 1.9 280 / 91017.5 0.9 0.7 0.7
2016-Jul-19 06:00N 71°12' W 162°48'0 0.0 290 / 111017.6 0.9 0.7 0.8
2016-Jul-19 04:00N 71°12' W 162°48'0 0.0 290 / 131017.5 1.4 1.3 0.4
2016-Jul-19 03:00N 71°12' W 162°48'8 3.9 290 / 151017.4 1.3 1.1 0.6
2016-Jul-19 01:00N 71°12' W 162°24'0 0.0 270 / 91017.3 0.9 0.7 0.2
2016-Jul-19 00:00N 71°12' W 162°24'0 0.0 270 / 101017.2 0.8 0.6 0.5
2016-Jul-18 23:00N 71°12' W 162°24'6 6.3 260 / 91016.9 0.8 0.6 0.1
2016-Jul-18 22:00N 71°06' W 162°18'0 0.0 290 / 121016.6 0.9 0.7 0.1
2016-Jul-18 20:00N 71°06' W 162°18'8 4.2 290 / 121015.8 1.2 1.1 0.5
2016-Jul-18 18:00N 71°00' W 162°00'   290 / 191014.3 1.5 1.4 4.2
Track history (hours):
 
Tides and Currents Weather Stations Pressure Air Temp Water Temp Dewpoint Dewpoint Depression Visibility Wind Speed Wind Dir Waves Ship Positions

Oceanographic research ship CCGS Sir Wilfrid Laurier (Canada)

Detailed information on ship capabilities available from ARCUS's ALIAS (Arctic Logistics Information and Support) project.

Last reported at 2016-Jul-28 18:00 UTC. Time now 2016-Jul-28 20:21 UTC.
Position N 69°36' W 138°54'.

Length 83 m; beam 16.2 m; draft 6 m.

Type: SAR. MMSI: 316052000.

Wind from 070 at 4 knots

Barometer 1003.1 mb
Air temperature 11.7 ° C
Dewpoint 9.5 ° C

Date/timePositionNaut miles runAvg speedWind from/ knotsBaromVisibWave heightAir tempDewpointWater temp
2016-Jul-28 18:00N 69°36' W 138°54'0 0.0 070 / 41003.1 11.7 9.5
2016-Jul-28 17:00N 69°36' W 138°54'0 0.0 100 / 31003.9 11.5 9.3
2016-Jul-28 16:00N 69°36' W 138°54'0 0.0 140 / 21004.5 13.110.4
2016-Jul-28 15:00N 69°36' W 138°54'0 0.0 240 / 11004.7 13.410.0
2016-Jul-28 14:00N 69°36' W 138°54'0 0.0 280 / 71005.1 12.7 9.5
2016-Jul-28 13:00N 69°36' W 138°54'0 0.0 320 / 81005.1 11.8 9.4
2016-Jul-28 12:00N 69°36' W 138°54'0 0.0 300 / 171005.0 12.3 9.2
2016-Jul-28 11:00N 69°36' W 138°54'0 0.0 300 / 281003.4 11.7 8.8
2016-Jul-28 08:00N 69°36' W 138°54'0 0.0 200 / 31002.2 14.910.0
2016-Jul-28 05:00N 69°36' W 138°54'0 0.0 170 / 181002.6 18.610.4
2016-Jul-27 23:00N 69°36' W 138°54'0 0.0 080 / 71005.0 19.7 5.1
2016-Jul-27 19:00N 69°36' W 138°54'0 0.0 180 / 81005.6 18.5 8.6
2016-Jul-27 18:00N 69°36' W 138°54'0 0.0 190 / 91006.1 19.4 8.2
2016-Jul-27 15:00N 69°36' W 138°54'0 0.0 220 / 11006.9 13.8 6.4
2016-Jul-27 12:00N 69°36' W 138°54'0 0.0 230 / 11007.3 11.1 8.6
2016-Jul-27 11:00N 69°36' W 138°54'0 0.0 180 / 11007.4 12.3 9.5
2016-Jul-27 10:00N 69°36' W 138°54'0 0.0 140 / 21007.6 11.2 9.5
2016-Jul-27 09:00N 69°36' W 138°54'0 0.0 140 / 11007.7 11.4 8.9
2016-Jul-27 04:00N 69°36' W 138°54'0 0.0 110 / 11008.6 13.7 8.0
2016-Jul-27 03:00N 69°36' W 138°54'0 0.0 110 / 41008.8 13.3 8.8
2016-Jul-27 02:00N 69°36' W 138°54'0 0.0 100 / 91008.6 12.6 8.3
2016-Jul-27 01:00N 69°36' W 138°54'0 0.0 090 / 91008.6 12.5 8.1
2016-Jul-27 00:00N 69°36' W 138°54'0 0.0 090 / 51008.9 12.5 8.1
2016-Jul-26 22:00N 69°36' W 138°54'0 0.0 120 / 91008.9 10.2 8.3
2016-Jul-26 20:00N 69°36' W 138°54'0 0.0 110 / 41009.1 9.6 8.0
2016-Jul-26 19:00N 69°36' W 138°54'0 0.0 120 / 71009.2 9.6 8.0
2016-Jul-26 18:00N 69°36' W 138°54'0 0.0 110 / 121009.3 9.1 7.8
2016-Jul-26 17:00N 69°36' W 138°54'0 0.0 120 / 131009.8 9.2 7.4 8.7
2016-Jul-26 15:00N 69°36' W 138°54'10 5.2 120 / 211010.6 8.2 6.7 8.6
2016-Jul-26 13:00N 69°30' W 138°30'7 7.3 140 / 251011.7 8.3 7.0 8.2
2016-Jul-26 12:00N 69°36' W 138°42'7 7.3 150 / 201012.2 8.3 7.2 8.1
2016-Jul-26 11:00N 69°42' W 138°54'9 8.6 130 / 231012.3 7.8 6.7 7.3
2016-Jul-26 10:00N 69°48' W 139°12'1010.2 120 / 251012.7 6.8 5.4 7.4
2016-Jul-26 09:00N 69°54' W 139°36'12 6.0 120 / 261012.9 6.7 4.9 6.3
2016-Jul-26 07:00N 70°00' W 140°06'9 8.6 120 / 261013.9 5.8 4.7 3.4
2016-Jul-26 06:00N 70°06' W 140°24'1010.1 110 / 181014.3 5.0 4.8 3.7
2016-Jul-26 05:00N 70°12' W 140°48'7 7.2 120 / 191014.9 2.6 2.4 3.9
2016-Jul-26 04:00N 70°18' W 141°00'6 6.1 110 / 191015.2 1.5 1.4 3.5
2016-Jul-26 03:00N 70°18' W 141°18'9 8.5 120 / 171015.5 1.3 1.2 4.0
2016-Jul-26 02:00N 70°24' W 141°36'6 6.0 120 / 171015.7 0.5 0.4 3.5
2016-Jul-26 01:00N 70°24' W 141°54'1010.0 110 / 151016.2 0.6 0.4 4.0
2016-Jul-26 00:00N 70°30' W 142°18'8 8.0 110 / 131016.2 0.5 0.4 3.9
2016-Jul-25 23:00N 70°30' W 142°42'13 6.7 100 / 151016.2 -0.1-0.2 3.5
2016-Jul-25 21:00N 70°36' W 143°18'8 8.5 090 / 111016.6 0.1-0.1 3.4
2016-Jul-25 20:00N 70°42' W 143°36'19 9.4 080 / 111016.6 -0.0-0.2 2.7
2016-Jul-25 18:00N 70°48' W 144°30'10 9.9 090 / 141016.4 2.5 0.9 3.3
2016-Jul-25 17:00N 70°54' W 144°54'10 9.8 090 / 111016.3 2.6 1.6 2.2
2016-Jul-25 16:00N 70°54' W 145°24'10 9.8 060 / 71016.5 2.1 1.4 1.7
2016-Jul-25 15:00N 70°54' W 145°54'1413.7 090 / 121015.9 2.0 1.4 1.6
2016-Jul-25 14:00N 70°54' W 146°36'8 4.2 080 / 141015.8 2.2 1.4 1.3
2016-Jul-25 12:00N 70°48' W 146°54'0 0.0 070 / 71016.1 1.3 1.1 0.9
2016-Jul-25 11:00N 70°48' W 146°54'0 0.0 070 / 71016.0 1.2 1.0 0.9
2016-Jul-25 10:00N 70°48' W 146°54'0 0.0 070 / 81015.9 1.2 1.0 1.0
2016-Jul-25 09:00N 70°48' W 146°54'2 2.0 070 / 61015.9 1.3 1.1 1.1
2016-Jul-25 08:00N 70°48' W 146°48'8 2.1 070 / 91015.8 1.3 1.1 1.2
2016-Jul-25 04:00N 70°54' W 147°06'4 3.9 090 / 191015.4 2.6 1.3 1.5
2016-Jul-25 03:00N 70°54' W 147°18'6 5.9 090 / 201015.2 2.4 1.0 1.0
2016-Jul-25 02:00N 70°54' W 147°36'4 3.9 090 / 211015.1 2.3 1.0 1.5
2016-Jul-25 01:00N 70°54' W 147°48'17 5.6 090 / 211015.2 2.4 1.0 1.8
2016-Jul-24 22:00N 71°06' W 148°24'1111.4 090 / 191015.5 2.8 1.5 2.5
2016-Jul-24 21:00N 71°12' W 148°54'35 7.0 090 / 191015.4 3.1 1.7 2.5
2016-Jul-24 16:00N 71°24' W 150°36'10 9.6 090 / 181014.9 3.1 2.2 2.6
2016-Jul-24 15:00N 71°24' W 151°06'16 8.2 080 / 171014.9 2.8 2.3 2.5
2016-Jul-24 13:00N 71°30' W 151°54'0 0.0 050 / 51015.7 1.7 1.5 1.2
2016-Jul-24 11:00N 71°30' W 151°54'0 0.0 050 / 81015.9 1.3 1.2 1.4
2016-Jul-24 10:00N 71°30' W 151°54'0 0.0 040 / 61016.0 1.5 1.3 1.4
2016-Jul-24 09:00N 71°30' W 151°54'0 0.0 040 / 51015.9 1.6 1.4 1.4
2016-Jul-24 06:00N 71°30' W 151°54'2 1.9 050 / 71015.9 2.1 1.9 2.2
2016-Jul-24 05:00N 71°30' W 152°00'7 7.1 030 / 111016.1 1.4 1.3 2.9
2016-Jul-24 04:00N 71°36' W 152°12'7 7.1 050 / 141016.3 1.0 0.8 3.4
2016-Jul-24 03:00N 71°42' W 152°24'4 3.8 050 / 131016.4 0.3 0.1 2.7
2016-Jul-24 02:00N 71°42' W 152°36'8 8.2 070 / 151016.3 -0.1-0.2 2.5
2016-Jul-24 01:00N 71°48' W 152°54'15 5.0 090 / 151016.4 0.4 0.3 1.6
2016-Jul-23 22:00N 71°48' W 153°42'7 7.1 090 / 131016.7 1.4 1.3 2.5
2016-Jul-23 21:00N 71°54' W 153°54'1313.0 090 / 161015.8 1.5 1.3 2.8
2016-Jul-23 20:00N 71°54' W 154°36'21 6.9 080 / 191015.6 1.5 1.4 2.8
2016-Jul-23 17:00N 71°42' W 155°30'13 6.4 080 / 141015.8 -0.5-0.7 2.7
2016-Jul-23 15:00N 71°36' W 156°06'6 5.7 070 / 131015.2 0.5-0.0 1.8
2016-Jul-23 14:00N 71°36' W 156°24'8 8.3 080 / 141015.1 0.1-0.4 3.6
2016-Jul-23 13:00N 71°30' W 156°42'0 0.0 040 / 41014.9 -0.3-0.5 3.2
2016-Jul-23 09:00N 71°30' W 156°42'0 0.0 080 / 71014.1 -0.1-0.3 3.6
2016-Jul-23 08:00N 71°30' W 156°42'0 0.0 030 / 41013.7 -0.3-0.5 2.8
2016-Jul-23 07:00N 71°30' W 156°42'0 0.0 050 / 71013.6 -0.1-0.3 3.3
2016-Jul-23 06:00N 71°30' W 156°42'2 1.9 030 / 61013.5 -0.0-0.2 2.5
2016-Jul-23 05:00N 71°30' W 156°48'6 6.0 020 / 41013.2 -0.2-0.4 2.7
2016-Jul-23 04:00N 71°24' W 156°48'0 0.0 030 / 81013.0 -0.4-0.5 2.1
2016-Jul-23 03:00N 71°24' W 156°48'0 0.0 040 / 81012.9 -0.6-0.7 2.2
2016-Jul-23 02:00N 71°24' W 156°48'0 0.0 360 / 51012.7 -0.9-1.0 2.2
2016-Jul-23 01:00N 71°24' W 156°48'2 1.9 360 / 61012.6 -1.0-1.2 2.0
2016-Jul-23 00:00N 71°24' W 156°54'0 0.0 350 / 41012.6 -1.1-1.2 2.0
2016-Jul-22 23:00N 71°24' W 156°54'0 0.0 350 / 31012.8 -1.0-1.1 1.9
2016-Jul-22 22:00N 71°24' W 156°54'0 0.0 010 / 71012.8 -1.3-1.5 1.7
2016-Jul-22 21:00N 71°24' W 156°54'2 1.9 030 / 101012.8 -0.7-0.8 5.1
2016-Jul-22 20:00N 71°24' W 156°48'0 0.0 360 / 41012.7 -0.5-0.7 5.2
2016-Jul-22 19:00N 71°24' W 156°48'2 1.9 360 / 51012.4 1.1 0.9 5.2
2016-Jul-22 18:00N 71°24' W 156°54'6 3.0 020 / 61012.2 2.2 2.0 5.3
2016-Jul-22 16:00N 71°18' W 156°54'0 0.0 010 / 61012.4 3.3 2.4 5.1
2016-Jul-22 14:00N 71°18' W 156°54'6 6.0 030 / 51012.4 3.4 2.7 4.4
2016-Jul-22 13:00N 71°24' W 156°54'0 0.0 030 / 61012.7 1.8 1.5 2.5
2016-Jul-22 12:00N 71°24' W 156°54'0 0.0 050 / 61012.9 1.6 1.2 2.5
2016-Jul-22 10:00N 71°24' W 156°54'2 1.9 070 / 71013.2 1.8 1.2 1.6
2016-Jul-22 09:00N 71°24' W 157°00'0 0.0 070 / 81013.3 2.1 1.5 1.7
2016-Jul-22 08:00N 71°24' W 157°00'2 1.9 070 / 81013.4 2.4 1.6 1.7
2016-Jul-22 07:00N 71°24' W 157°06'0 0.0 080 / 81013.4 2.8 2.0 1.8
2016-Jul-22 06:00N 71°24' W 157°06'0 0.0 060 / 91013.7 2.5 1.7 1.9
2016-Jul-22 05:00N 71°24' W 157°06'2 0.6 060 / 91014.0 2.5 1.7 2.4
2016-Jul-22 02:00N 71°24' W 157°12'6 6.3 070 / 101014.6 2.9 1.9 2.7
2016-Jul-22 01:00N 71°18' W 157°06'4 3.8 070 / 111014.8 6.1 3.9 5.3
2016-Jul-22 00:00N 71°18' W 156°54'0 0.0 070 / 101015.3 5.3 2.9
2016-Jul-21 21:00N 71°18' W 156°54'0 0.0 070 / 91015.9 4.9 3.2 4.4
2016-Jul-21 20:00N 71°18' W 156°54'0 0.0 070 / 91016.1 5.2 3.6 4.3
2016-Jul-21 19:00N 71°18' W 156°54'0 0.0 070 / 111016.1 5.7 3.6 4.2
2016-Jul-21 18:00N 71°18' W 156°54'0 0.0 080 / 111016.2 4.3 3.3 3.2
2016-Jul-21 17:00N 71°18' W 156°54'2 1.9 080 / 111016.4 4.8 3.8 3.2
2016-Jul-21 16:00N 71°18' W 157°00'2 1.9 080 / 101016.4 4.0 3.5 4.0
2016-Jul-21 15:00N 71°18' W 157°06'8 8.3 080 / 101016.5 3.7 3.4 4.1
2016-Jul-21 14:00N 71°12' W 157°24'4 3.9 080 / 121016.6 2.7 2.6 5.4
2016-Jul-21 13:00N 71°12' W 157°36'0 0.0 060 / 71017.1 1.7 1.6 4.3
2016-Jul-21 12:00N 71°12' W 157°36'0 0.0 050 / 31017.4 1.3 1.1 4.7
2016-Jul-21 11:00N 71°12' W 157°36'6 3.2 060 / 101017.8 1.5 1.4 4.3
2016-Jul-21 09:00N 71°06' W 157°30'0 0.0 060 / 91018.3 0.4 0.2 4.3
2016-Jul-21 08:00N 71°06' W 157°30'0 0.0 050 / 91018.4 0.1-0.1 4.2
2016-Jul-21 07:00N 71°06' W 157°30'6 1.6 040 / 81018.5 2.0 1.8 4.3
2016-Jul-21 03:00N 71°12' W 157°24'0 0.0 040 / 91019.8 2.5 2.2 4.5
2016-Jul-21 02:00N 71°12' W 157°24'0 0.0 020 / 91020.0 2.2 2.0 4.7
2016-Jul-21 01:00N 71°12' W 157°24'0 0.0 030 / 91020.1 2.1 1.9 4.4
2016-Jul-20 23:00N 71°12' W 157°24'0 0.0 010 / 61020.5 1.6 1.5 4.0
2016-Jul-20 22:00N 71°12' W 157°24'0 0.0 010 / 51020.4 1.1 0.9 3.9
2016-Jul-20 21:00N 71°12' W 157°24'6 6.3 030 / 61020.3 1.0 0.8 3.3
2016-Jul-20 20:00N 71°06' W 157°30'4 3.9 020 / 71020.2 0.3 0.1 3.4
2016-Jul-20 19:00N 71°06' W 157°42'10 4.9 060 / 31020.3 0.2-0.0 3.0
2016-Jul-20 17:00N 71°06' W 158°12'6 5.8 080 / 51020.1 0.8 0.5 5.9
2016-Jul-20 16:00N 71°06' W 158°30'1716.8 080 / 91019.5 1.5 1.2 7.2
2016-Jul-20 15:00N 70°54' W 159°06'4410.9 070 / 111019.3 2.0 1.8 7.6
2016-Jul-20 11:00N 70°48' W 161°18'18 8.9 070 / 101019.3 1.6 1.4 7.3
2016-Jul-20 09:00N 70°48' W 162°12'19 9.4 060 / 71019.3 2.3 2.0 7.5
2016-Jul-20 07:00N 70°54' W 163°06'20 9.9 050 / 71018.9 1.5 1.3 4.8
2016-Jul-20 05:00N 71°06' W 163°54'1312.6 020 / 41019.1 0.1-0.1 3.0
2016-Jul-20 04:00N 71°18' W 164°06'19 9.4 350 / 51019.1 -0.7-0.8 1.1
2016-Jul-20 02:00N 71°36' W 163°48'0 0.0 310 / 21019.1 -0.9-1.0 1.0
2016-Jul-20 00:00N 71°36' W 163°48'25 8.2 330 / 71018.9 -1.3-1.4 1.0
2016-Jul-19 21:00N 71°12' W 163°30'6 5.8 340 / 81018.4 -1.1-1.3 0.4
2016-Jul-19 20:00N 71°12' W 163°12'6 5.8 320 / 61018.1 -0.8-0.9 0.7
2016-Jul-19 19:00N 71°12' W 162°54'6 6.3 310 / 51018.1 -0.8-0.9 0.5
2016-Jul-19 18:00N 71°18' W 162°48'7 3.6 290 / 71018.0 -0.9-1.1 0.4
2016-Jul-19 16:00N 71°12' W 162°36'0 0.0 290 / 61017.9 -1.3-1.4 0.4
2016-Jul-19 15:00N 71°12' W 162°36'0 0.0 310 / 71017.9 -1.3-1.4 0.4
2016-Jul-19 14:00N 71°12' W 162°36'2 0.6 290 / 71017.8 -1.7-1.8 0.4
2016-Jul-19 11:00N 71°12' W 162°42'0 0.0 310 / 111017.8 -0.5-0.6 0.3
2016-Jul-19 09:00N 71°12' W 162°42'0 0.0 290 / 81017.7 0.8 0.7 0.5
2016-Jul-19 08:00N 71°12' W 162°42'0 0.0 290 / 81017.6 0.9 0.7 0.6
2016-Jul-19 07:00N 71°12' W 162°42'2 1.9 280 / 91017.5 0.9 0.7 0.7
2016-Jul-19 06:00N 71°12' W 162°48'0 0.0 290 / 111017.6 0.9 0.7 0.8
2016-Jul-19 04:00N 71°12' W 162°48'0 0.0 290 / 131017.5 1.4 1.3 0.4
2016-Jul-19 03:00N 71°12' W 162°48'8 3.9 290 / 151017.4 1.3 1.1 0.6
2016-Jul-19 01:00N 71°12' W 162°24'0 0.0 270 / 91017.3 0.9 0.7 0.2
2016-Jul-19 00:00N 71°12' W 162°24'0 0.0 270 / 101017.2 0.8 0.6 0.5
2016-Jul-18 23:00N 71°12' W 162°24'6 6.3 260 / 91016.9 0.8 0.6 0.1
2016-Jul-18 22:00N 71°06' W 162°18'0 0.0 290 / 121016.6 0.9 0.7 0.1
2016-Jul-18 20:00N 71°06' W 162°18'8 4.2 290 / 121015.8 1.2 1.1 0.5
2016-Jul-18 18:00N 71°00' W 162°00'   290 / 191014.3 1.5 1.4 4.2

Dump ship's entire track history